Time;durP1;ratioP1;P1;durP2;ratioP2;P2;SDS_P1;SDS_P2;PMS_P1;PMS_P2;Temp;Humidity;BMP_temperature;BMP_pressure;BME280_temperature;BME280_humidity;BME280_pressure;Samples;Min_cycle;Max_cycle;Signal;HPM_P1;HPM_P2
2022/09/01 00:01:29;;;;;;;;;;;17.60;99.90;;;;;;5046489;28;20202;-65
2022/09/01 00:03:58;;;;;;;;;;;17.60;99.90;;;;;;5035767;28;20187;-65
2022/09/01 00:06:26;;;;;;;;;;;17.60;99.90;;;;;;5049032;28;20628;-64
2022/09/01 00:08:56;;;;;;;;;;;17.60;99.90;;;;;;5046155;28;20223;-65
2022/09/01 00:11:25;;;;;;;;;;;17.60;99.90;;;;;;5047457;28;20231;-65
2022/09/01 00:13:53;;;;;;;;;;;17.70;99.90;;;;;;5046977;28;20259;-64
2022/09/01 00:16:22;;;;;;;;;;;17.70;99.90;;;;;;5049445;28;20194;-64
2022/09/01 00:18:51;;;;;;;;;;;17.70;99.90;;;;;;5049104;28;20202;-65
2022/09/01 00:21:21;;;;;;;;;;;17.70;99.90;;;;;;5042495;28;20202;-64
2022/09/01 00:23:48;;;;;;;;;;;17.60;99.90;;;;;;5049737;28;20677;-65
2022/09/01 00:26:16;;;;;;;;;;;17.60;99.90;;;;;;5050362;28;20705;-65
2022/09/01 00:28:44;;;;;;;;;;;17.50;99.90;;;;;;5046320;28;20205;-64
2022/09/01 00:31:13;;;;;;;;;;;17.50;99.90;;;;;;5048469;28;20264;-65
2022/09/01 00:33:43;;;;;;;;;;;17.50;99.90;;;;;;5040738;28;20273;-65
2022/09/01 00:36:10;;;;;;;;;;;17.50;99.90;;;;;;5045980;28;20205;-65
2022/09/01 00:38:38;;;;;;;;;;;17.40;99.90;;;;;;5041442;28;20577;-65
2022/09/01 00:41:06;;;;;;;;;;;17.50;99.90;;;;;;5044516;28;20215;-65
2022/09/01 00:43:37;;;;;;;;;;;17.50;99.90;;;;;;5042134;28;20198;-65
2022/09/01 00:46:05;;;;;;;;;;;17.40;99.90;;;;;;5044826;28;20241;-65
2022/09/01 00:48:36;;;;;;;;;;;17.30;99.90;;;;;;5043310;28;20208;-64
2022/09/01 00:51:07;;;;;;;;;;;17.30;99.90;;;;;;5045637;28;20633;-65
2022/09/01 00:53:35;;;;;;;;;;;17.40;99.90;;;;;;5041082;28;20263;-64
2022/09/01 00:56:04;;;;;;;;;;;17.40;99.90;;;;;;5038998;28;20249;-65
2022/09/01 00:58:32;;;;;;;;;;;17.40;99.90;;;;;;5040430;28;20284;-64
2022/09/01 01:01:00;;;;;;;;;;;17.30;99.90;;;;;;5041952;28;20203;-65
2022/09/01 01:03:29;;;;;;;;;;;17.20;99.90;;;;;;5041117;28;20221;-64
2022/09/01 01:05:57;;;;;;;;;;;17.20;99.90;;;;;;5048435;28;20197;-64
2022/09/01 01:08:32;;;;;;;;;;;17.10;99.90;;;;;;5048134;28;20584;-65
2022/09/01 01:11:01;;;;;;;;;;;17.00;99.90;;;;;;5045470;28;20234;-64
2022/09/01 01:13:30;;;;;;;;;;;17.00;99.90;;;;;;5047920;28;20205;-64
2022/09/01 01:15:59;;;;;;;;;;;17.00;99.90;;;;;;5041798;28;20327;-65
2022/09/01 01:18:27;;;;;;;;;;;17.00;99.90;;;;;;5048196;28;20720;-65
2022/09/01 01:23:49;;;;;;;;;;;16.90;99.90;;;;;;5050539;28;20214;-65
2022/09/01 01:26:19;;;;;;;;;;;16.90;99.90;;;;;;5045484;28;20635;-65
2022/09/01 01:28:47;;;;;;;;;;;16.90;99.90;;;;;;5040981;28;20203;-65
2022/09/01 01:31:17;;;;;;;;;;;17.00;99.90;;;;;;5046018;28;20226;-65
2022/09/01 01:33:47;;;;;;;;;;;17.00;99.90;;;;;;5046808;28;20198;-65
2022/09/01 01:36:16;;;;;;;;;;;17.00;99.90;;;;;;5048930;28;20212;-65
2022/09/01 01:38:45;;;;;;;;;;;16.90;99.90;;;;;;5043665;28;20230;-66
2022/09/01 01:41:14;;;;;;;;;;;16.90;99.90;;;;;;5043703;28;20256;-65
2022/09/01 01:43:43;;;;;;;;;;;16.80;99.90;;;;;;5047684;28;20228;-65
2022/09/01 01:46:13;;;;;;;;;;;16.90;99.90;;;;;;5046357;28;21027;-65
2022/09/01 01:48:41;;;;;;;;;;;16.80;99.90;;;;;;5040758;28;20207;-65
2022/09/01 01:51:10;;;;;;;;;;;16.90;99.90;;;;;;5046406;28;20768;-65
2022/09/01 01:53:39;;;;;;;;;;;16.90;99.90;;;;;;5048455;28;20216;-64
2022/09/01 01:56:10;;;;;;;;;;;16.90;99.90;;;;;;5050554;28;20711;-65
2022/09/01 01:58:38;;;;;;;;;;;16.90;99.90;;;;;;5046270;28;20076;-65
2022/09/01 02:01:11;;;;;;;;;;;17.10;99.90;;;;;;5044722;28;20522;-65
2022/09/01 02:03:39;;;;;;;;;;;17.20;99.90;;;;;;5045287;28;20229;-65
2022/09/01 02:06:08;;;;;;;;;;;17.10;99.90;;;;;;5047767;28;20202;-65
2022/09/01 02:08:37;;;;;;;;;;;17.10;99.90;;;;;;5043698;28;20261;-65
2022/09/01 02:11:05;;;;;;;;;;;17.20;99.90;;;;;;5046580;28;20194;-66
2022/09/01 02:13:34;;;;;;;;;;;17.10;99.90;;;;;;5044716;28;20728;-65
2022/09/01 02:16:03;;;;;;;;;;;17.20;99.90;;;;;;5048251;28;20580;-65
2022/09/01 02:18:34;;;;;;;;;;;17.20;99.90;;;;;;5044644;28;20197;-65
2022/09/01 02:21:03;;;;;;;;;;;17.10;99.90;;;;;;5050684;28;20261;-65
2022/09/01 02:23:31;;;;;;;;;;;17.10;99.90;;;;;;5047977;28;20205;-65
2022/09/01 02:26:01;;;;;;;;;;;17.10;99.90;;;;;;5051884;28;20198;-65
2022/09/01 02:28:48;;;;;;;;;;;17.10;99.90;;;;;;5046223;28;20196;-65
2022/09/01 02:31:22;;;;;;;;;;;17.10;99.90;;;;;;5047459;28;20195;-66
2022/09/01 02:33:53;;;;;;;;;;;17.00;99.90;;;;;;5049970;28;20201;-66
2022/09/01 02:36:21;;;;;;;;;;;17.00;99.90;;;;;;5044216;28;20198;-64
2022/09/01 02:38:50;;;;;;;;;;;17.00;99.90;;;;;;5046022;28;20198;-65
2022/09/01 02:41:23;;;;;;;;;;;17.00;99.90;;;;;;5049072;28;20229;-64
2022/09/01 02:43:52;;;;;;;;;;;17.20;99.90;;;;;;5045464;28;20195;-65
2022/09/01 02:46:22;;;;;;;;;;;17.20;99.90;;;;;;5046087;28;20190;-65
2022/09/01 02:48:53;;;;;;;;;;;17.20;99.90;;;;;;5042704;28;20695;-65
2022/09/01 02:51:22;;;;;;;;;;;17.30;99.90;;;;;;5047233;28;20199;-64
2022/09/01 02:53:51;;;;;;;;;;;17.20;99.90;;;;;;5046291;28;20186;-64
2022/09/01 02:56:21;;;;;;;;;;;17.20;99.90;;;;;;5049429;28;20500;-65
2022/09/01 02:58:52;;;;;;;;;;;17.00;99.90;;;;;;5048235;28;20647;-64
2022/09/01 03:01:23;;;;;;;;;;;16.90;99.90;;;;;;5048251;28;20210;-65
2022/09/01 03:03:54;;;;;;;;;;;17.10;99.90;;;;;;5045101;28;20320;-65
2022/09/01 03:06:22;;;;;;;;;;;17.30;99.90;;;;;;5047509;28;20202;-64
2022/09/01 03:08:51;;;;;;;;;;;17.40;99.90;;;;;;5072638;22;20301;-69
2022/09/01 03:11:19;;;;;;;;;;;17.40;99.90;;;;;;5047929;28;20207;-69
2022/09/01 03:13:47;;;;;;;;;;;17.30;99.90;;;;;;5046955;28;20198;-69
2022/09/01 03:16:15;;;;;;;;;;;17.30;99.90;;;;;;5045042;28;20208;-70
2022/09/01 03:18:43;;;;;;;;;;;17.20;99.90;;;;;;5048834;28;20187;-70
2022/09/01 03:21:15;;;;;;;;;;;17.00;99.90;;;;;;5047297;28;20194;-69
2022/09/01 03:23:44;;;;;;;;;;;16.90;99.90;;;;;;5047026;28;20273;-69
2022/09/01 03:26:12;;;;;;;;;;;16.90;99.90;;;;;;5050066;28;20213;-70
2022/09/01 03:28:40;;;;;;;;;;;16.90;99.90;;;;;;5050591;28;20208;-71
2022/09/01 03:31:08;;;;;;;;;;;17.00;99.90;;;;;;5043923;28;20131;-71
2022/09/01 03:33:36;;;;;;;;;;;17.10;99.90;;;;;;5046837;28;20683;-71
2022/09/01 03:36:04;;;;;;;;;;;17.30;99.90;;;;;;5043673;28;20962;-69
2022/09/01 03:38:43;;;;;;;;;;;17.20;99.90;;;;;;5049585;28;20189;-69
2022/09/01 03:41:11;;;;;;;;;;;17.00;99.90;;;;;;5042578;28;20259;-69
2022/09/01 03:43:40;;;;;;;;;;;16.90;99.90;;;;;;5044380;28;20594;-69
2022/09/01 03:46:18;;;;;;;;;;;17.00;99.90;;;;;;5047822;28;20217;-69
2022/09/01 03:48:49;;;;;;;;;;;16.80;99.90;;;;;;5041866;28;20208;-69
2022/09/01 03:51:17;;;;;;;;;;;17.00;99.90;;;;;;5041827;28;20229;-69
2022/09/01 03:53:46;;;;;;;;;;;17.10;99.90;;;;;;5049194;28;20198;-70
2022/09/01 03:56:15;;;;;;;;;;;17.20;99.90;;;;;;5041881;28;20204;-69
2022/09/01 03:58:45;;;;;;;;;;;17.10;99.90;;;;;;5048693;28;20203;-69
2022/09/01 04:01:14;;;;;;;;;;;17.10;99.90;;;;;;5048053;28;20281;-69
2022/09/01 04:03:44;;;;;;;;;;;17.10;99.90;;;;;;5046204;28;20226;-69
2022/09/01 04:06:12;;;;;;;;;;;17.20;99.90;;;;;;5048464;28;20695;-70
2022/09/01 04:08:41;;;;;;;;;;;17.30;99.90;;;;;;5043475;28;20695;-70
2022/09/01 04:11:15;;;;;;;;;;;17.70;99.90;;;;;;5049764;28;20273;-70
2022/09/01 04:13:43;;;;;;;;;;;17.70;99.90;;;;;;5044427;28;20083;-70
2022/09/01 04:18:03;;;;;;;;;;;17.80;99.90;;;;;;5044219;28;20260;-70
2022/09/01 04:19:14;;;;;;;;;;;17.70;99.90;;;;;;5045454;28;20226;-69
2022/09/01 04:21:43;;;;;;;;;;;17.50;99.90;;;;;;5045289;28;20215;-68
2022/09/01 04:24:13;;;;;;;;;;;17.60;99.90;;;;;;5043631;28;20614;-69
2022/09/01 04:26:44;;;;;;;;;;;17.70;99.90;;;;;;5045146;28;20077;-70
2022/09/01 04:29:12;;;;;;;;;;;17.90;99.90;;;;;;5045176;28;20789;-69
2022/09/01 04:31:41;;;;;;;;;;;18.00;99.90;;;;;;5043469;28;20209;-69
2022/09/01 04:34:12;;;;;;;;;;;17.70;99.90;;;;;;5042473;28;20206;-69
2022/09/01 04:36:42;;;;;;;;;;;17.60;99.90;;;;;;5044659;28;20218;-69
2022/09/01 04:39:11;;;;;;;;;;;17.50;99.90;;;;;;5039496;28;20194;-68
2022/09/01 04:41:41;;;;;;;;;;;17.60;99.90;;;;;;5033850;28;20293;-67
2022/09/01 04:44:10;;;;;;;;;;;17.60;99.90;;;;;;5031761;28;20620;-66
2022/09/01 04:46:41;;;;;;;;;;;17.60;99.90;;;;;;5034479;28;20237;-66
2022/09/01 04:49:09;;;;;;;;;;;17.90;99.90;;;;;;5034104;28;20217;-67
2022/09/01 04:51:40;;;;;;;;;;;18.40;99.90;;;;;;5036931;28;20266;-66
2022/09/01 04:54:09;;;;;;;;;;;18.70;99.90;;;;;;5037862;28;20214;-66
2022/09/01 04:56:38;;;;;;;;;;;18.90;99.90;;;;;;5036712;28;20268;-67
2022/09/01 04:59:07;;;;;;;;;;;18.80;99.90;;;;;;5037375;28;20206;-66
2022/09/01 05:01:41;;;;;;;;;;;18.60;99.90;;;;;;5037792;28;20856;-67
2022/09/01 05:04:11;;;;;;;;;;;18.70;99.90;;;;;;5036307;28;20202;-67
2022/09/01 05:06:40;;;;;;;;;;;18.60;99.90;;;;;;5037414;28;20202;-67
2022/09/01 05:09:10;;;;;;;;;;;18.60;99.90;;;;;;5034590;28;20208;-67
2022/09/01 05:11:38;;;;;;;;;;;18.60;99.90;;;;;;5032612;28;20752;-68
2022/09/01 05:14:06;;;;;;;;;;;18.60;99.90;;;;;;5035946;28;20248;-66
2022/09/01 05:16:36;;;;;;;;;;;18.60;99.90;;;;;;5035556;28;20221;-66
2022/09/01 05:19:05;;;;;;;;;;;18.60;99.90;;;;;;5037617;28;20862;-67
2022/09/01 05:21:33;;;;;;;;;;;18.60;99.90;;;;;;5036891;28;20227;-67
2022/09/01 05:24:02;;;;;;;;;;;18.60;99.90;;;;;;5037702;28;20206;-67
2022/09/01 05:26:33;;;;;;;;;;;18.60;99.90;;;;;;5033364;28;20205;-67
2022/09/01 05:29:02;;;;;;;;;;;18.60;99.90;;;;;;5037434;28;20687;-67
2022/09/01 05:31:33;;;;;;;;;;;18.60;99.90;;;;;;5036432;28;20213;-68
2022/09/01 05:34:03;;;;;;;;;;;18.50;99.90;;;;;;5034538;28;20213;-67
2022/09/01 05:36:32;;;;;;;;;;;18.60;99.90;;;;;;5034534;28;20210;-66
2022/09/01 05:39:00;;;;;;;;;;;18.60;99.90;;;;;;5033354;28;20488;-66
2022/09/01 05:41:28;;;;;;;;;;;18.30;99.90;;;;;;5031479;28;20209;-66
2022/09/01 05:43:57;;;;;;;;;;;18.10;99.90;;;;;;5035220;28;20236;-66
2022/09/01 05:46:28;;;;;;;;;;;17.90;99.90;;;;;;5035537;28;20225;-66
2022/09/01 05:48:56;;;;;;;;;;;17.80;99.90;;;;;;5041097;28;20122;-67
2022/09/01 05:51:27;;;;;;;;;;;17.60;99.90;;;;;;5032993;28;20761;-67
2022/09/01 05:54:11;;;;;;;;;;;17.50;99.90;;;;;;5034109;28;20285;-66
2022/09/01 05:56:40;;;;;;;;;;;17.30;99.90;;;;;;5035174;28;20259;-66
2022/09/01 05:59:11;;;;;;;;;;;17.20;99.90;;;;;;5034215;28;20211;-66
2022/09/01 06:01:54;;;;;;;;;;;17.10;99.90;;;;;;5029770;28;20201;-64
2022/09/01 06:04:23;;;;;;;;;;;17.10;99.90;;;;;;5031288;28;20230;-65
2022/09/01 06:06:55;;;;;;;;;;;17.10;99.90;;;;;;5038202;28;20217;-68
2022/09/01 06:09:36;;;;;;;;;;;17.10;99.90;;;;;;5038013;28;20181;-65
2022/09/01 06:12:05;;;;;;;;;;;17.00;99.90;;;;;;5041726;28;20686;-68
2022/09/01 06:14:33;;;;;;;;;;;16.90;99.90;;;;;;5050838;28;20226;-69
2022/09/01 06:17:01;;;;;;;;;;;16.90;99.90;;;;;;5043380;28;20195;-68
2022/09/01 06:19:32;;;;;;;;;;;16.80;99.90;;;;;;5050661;28;20281;-68
2022/09/01 06:22:06;;;;;;;;;;;16.90;99.90;;;;;;5050379;28;20186;-69
2022/09/01 06:24:33;;;;;;;;;;;16.80;99.90;;;;;;5051421;28;20629;-68
2022/09/01 06:27:01;;;;;;;;;;;16.90;99.90;;;;;;5042444;28;20213;-68
2022/09/01 06:29:30;;;;;;;;;;;16.90;99.90;;;;;;5051269;28;20166;-69
2022/09/01 06:32:01;;;;;;;;;;;16.90;99.90;;;;;;5040726;28;20606;-66
2022/09/01 06:34:28;;;;;;;;;;;16.90;99.90;;;;;;5048171;28;20242;-68
2022/09/01 06:36:56;;;;;;;;;;;16.90;99.90;;;;;;5045734;28;20572;-68
2022/09/01 06:39:25;;;;;;;;;;;17.00;99.90;;;;;;5048048;28;20126;-68
2022/09/01 06:41:53;;;;;;;;;;;17.00;99.90;;;;;;5046981;28;20205;-69
2022/09/01 06:44:22;;;;;;;;;;;16.90;99.90;;;;;;5055049;28;20199;-68
2022/09/01 06:46:50;;;;;;;;;;;17.00;99.90;;;;;;5054751;28;20376;-69
2022/09/01 06:49:20;;;;;;;;;;;17.00;99.90;;;;;;5052571;28;20072;-68
2022/09/01 06:51:48;;;;;;;;;;;17.10;99.90;;;;;;5053645;28;20218;-68
2022/09/01 06:54:18;;;;;;;;;;;17.10;99.90;;;;;;5054580;28;20694;-68
2022/09/01 06:56:49;;;;;;;;;;;17.20;99.90;;;;;;5055274;28;20177;-68
2022/09/01 06:59:19;;;;;;;;;;;17.20;99.90;;;;;;5046469;28;20245;-68
2022/09/01 07:01:51;;;;;;;;;;;17.30;99.90;;;;;;5052174;28;25071;-68
2022/09/01 07:04:20;;;;;;;;;;;17.40;99.90;;;;;;5052631;28;20125;-68
2022/09/01 07:06:49;;;;;;;;;;;17.50;99.90;;;;;;5047929;28;20689;-69
2022/09/01 07:09:37;;;;;;;;;;;17.60;99.90;;;;;;5049295;28;20212;-67
2022/09/01 07:12:18;;;;;;;;;;;17.60;99.90;;;;;;5051274;28;20195;-68
2022/09/01 07:14:55;;;;;;;;;;;17.70;99.90;;;;;;5053656;28;20172;-69
2022/09/01 07:17:43;;;;;;;;;;;17.70;99.90;;;;;;5052147;28;20255;-68
2022/09/01 07:20:11;;;;;;;;;;;17.80;99.90;;;;;;5045113;28;20095;-68
2022/09/01 07:22:56;;;;;;;;;;;17.90;99.90;;;;;;5034265;28;20191;-69
2022/09/01 07:25:46;;;;;;;;;;;18.00;99.90;;;;;;5045506;28;20257;-69
2022/09/01 07:28:31;;;;;;;;;;;18.00;99.90;;;;;;5053580;28;20099;-68
2022/09/01 07:31:08;;;;;;;;;;;18.10;99.90;;;;;;5045033;28;20682;-68
2022/09/01 07:33:58;;;;;;;;;;;18.30;99.90;;;;;;5054085;28;20546;-68
2022/09/01 07:36:45;;;;;;;;;;;18.30;99.90;;;;;;5048456;28;20210;-68
2022/09/01 07:39:33;;;;;;;;;;;18.30;99.90;;;;;;5053395;28;20288;-69
2022/09/01 07:42:19;;;;;;;;;;;18.30;99.90;;;;;;5066528;28;20277;-68
2022/09/01 07:45:10;;;;;;;;;;;18.20;99.90;;;;;;5053378;28;20187;-68
2022/09/01 07:47:55;;;;;;;;;;;18.30;99.90;;;;;;5048284;28;20613;-68
2022/09/01 07:50:23;;;;;;;;;;;18.40;99.90;;;;;;5052518;28;20267;-66
2022/09/01 07:53:11;;;;;;;;;;;18.60;99.90;;;;;;5052918;28;20191;-69
2022/09/01 07:55:40;;;;;;;;;;;18.70;99.90;;;;;;5044913;28;20200;-69
2022/09/01 07:58:10;;;;;;;;;;;18.80;99.90;;;;;;5044738;28;20202;-68
2022/09/01 08:00:40;;;;;;;;;;;18.80;99.90;;;;;;5049111;28;20201;-69
2022/09/01 08:03:07;;;;;;;;;;;19.00;99.90;;;;;;5053560;28;20284;-69
2022/09/01 08:05:35;;;;;;;;;;;19.10;99.90;;;;;;5050883;28;20210;-69
2022/09/01 08:08:04;;;;;;;;;;;19.20;99.90;;;;;;5043679;28;20217;-69
2022/09/01 08:10:45;;;;;;;;;;;19.20;99.90;;;;;;5037203;28;20281;-69
2022/09/01 08:13:16;;;;;;;;;;;19.30;99.90;;;;;;5051858;28;20202;-68
2022/09/01 08:15:50;;;;;;;;;;;19.30;99.90;;;;;;5046847;28;20217;-69
2022/09/01 08:18:35;;;;;;;;;;;19.30;99.90;;;;;;5049253;28;20685;-69
2022/09/01 08:21:20;;;;;;;;;;;19.30;99.90;;;;;;5050625;28;20286;-68
2022/09/01 08:23:49;;;;;;;;;;;19.40;99.90;;;;;;5046457;28;20581;-69
2022/09/01 08:26:19;;;;;;;;;;;19.60;99.90;;;;;;5048530;28;20307;-70
2022/09/01 08:28:47;;;;;;;;;;;19.60;99.90;;;;;;5052913;28;20190;-71
2022/09/01 08:31:23;;;;;;;;;;;19.60;99.90;;;;;;5052229;28;20200;-68
2022/09/01 08:33:52;;;;;;;;;;;19.60;99.90;;;;;;5052846;28;20202;-69
2022/09/01 08:36:19;;;;;;;;;;;19.70;99.90;;;;;;5052391;28;20244;-69
2022/09/01 08:38:52;;;;;;;;;;;19.60;99.90;;;;;;5051683;28;20786;-68
2022/09/01 08:41:26;;;;;;;;;;;19.60;99.90;;;;;;5044398;28;20614;-69
2022/09/01 08:44:06;;;;;;;;;;;19.70;99.90;;;;;;5052696;28;20209;-69
2022/09/01 08:46:38;;;;;;;;;;;19.80;99.90;;;;;;5043604;28;20568;-69
2022/09/01 08:49:08;;;;;;;;;;;19.90;99.90;;;;;;5052826;28;20194;-69
2022/09/01 08:51:53;;;;;;;;;;;20.10;99.90;;;;;;5046350;28;20192;-68
2022/09/01 08:54:23;;;;;;;;;;;20.50;99.90;;;;;;5051591;28;20220;-69
2022/09/01 08:57:00;;;;;;;;;;;20.90;99.90;;;;;;5053071;28;20197;-69
2022/09/01 08:59:28;;;;;;;;;;;21.10;99.90;;;;;;5047579;28;20198;-68
2022/09/01 09:02:00;;;;;;;;;;;21.40;99.90;;;;;;5046882;28;20186;-68
2022/09/01 09:04:39;;;;;;;;;;;21.70;99.90;;;;;;5051557;28;20615;-69
2022/09/01 09:07:10;;;;;;;;;;;21.70;99.90;;;;;;5051183;28;20198;-69
2022/09/01 09:09:42;;;;;;;;;;;21.60;99.90;;;;;;5043963;28;20241;-70
2022/09/01 09:12:27;;;;;;;;;;;21.50;99.90;;;;;;5043728;28;20210;-69
2022/09/01 09:15:03;;;;;;;;;;;21.60;99.90;;;;;;5046708;28;20229;-70
2022/09/01 09:17:35;;;;;;;;;;;21.60;99.90;;;;;;5048847;28;20198;-70
2022/09/01 09:20:04;;;;;;;;;;;21.60;99.90;;;;;;5047466;28;20198;-70
2022/09/01 09:22:32;;;;;;;;;;;21.50;99.90;;;;;;5048273;28;20206;-68
2022/09/01 09:25:06;;;;;;;;;;;21.70;99.90;;;;;;5045039;28;20210;-71
2022/09/01 09:27:36;;;;;;;;;;;21.80;99.90;;;;;;5052198;28;20222;-71
2022/09/01 09:30:05;;;;;;;;;;;21.90;99.90;;;;;;5043714;28;20199;-70
2022/09/01 09:32:49;;;;;;;;;;;22.00;99.90;;;;;;5044243;28;20632;-72
2022/09/01 09:35:38;;;;;;;;;;;22.10;99.90;;;;;;5043036;28;20252;-72
2022/09/01 09:38:21;;;;;;;;;;;22.20;99.90;;;;;;5051111;28;20272;-72
2022/09/01 09:41:00;;;;;;;;;;;22.20;99.90;;;;;;5045659;28;20244;-72
2022/09/01 09:43:54;;;;;;;;;;;22.50;99.90;;;;;;5051068;28;20207;-72
2022/09/01 09:46:24;;;;;;;;;;;23.00;99.90;;;;;;5051854;28;20666;-72
2022/09/01 09:49:15;;;;;;;;;;;23.10;99.90;;;;;;5045404;28;20683;-73
2022/09/01 09:51:44;;;;;;;;;;;23.10;99.90;;;;;;5050198;28;20194;-70
2022/09/01 09:54:14;;;;;;;;;;;23.30;99.90;;;;;;5046883;28;20206;-70
2022/09/01 09:56:43;;;;;;;;;;;23.40;99.90;;;;;;5051467;28;20201;-70
2022/09/01 09:59:23;;;;;;;;;;;23.60;99.90;;;;;;5043225;28;20289;-72
2022/09/01 10:02:17;;;;;;;;;;;24.00;99.90;;;;;;5051039;28;20203;-71
2022/09/01 10:04:46;;;;;;;;;;;24.20;99.90;;;;;;5044648;28;20183;-72
2022/09/01 10:07:31;;;;;;;;;;;24.20;99.90;;;;;;5050501;28;20226;-70
2022/09/01 10:10:00;;;;;;;;;;;24.20;99.90;;;;;;5051226;28;20213;-72
2022/09/01 10:12:29;;;;;;;;;;;24.20;99.90;;;;;;5042515;28;20644;-72
2022/09/01 10:15:00;;;;;;;;;;;24.20;99.90;;;;;;5053384;28;20208;-72
2022/09/01 10:17:40;;;;;;;;;;;24.10;99.50;;;;;;5045635;28;20244;-75
2022/09/01 10:20:13;;;;;;;;;;;24.40;99.90;;;;;;5043558;28;20211;-72
2022/09/01 10:22:41;;;;;;;;;;;24.70;99.30;;;;;;5047790;28;20192;-67
2022/09/01 10:25:16;;;;;;;;;;;24.70;98.70;;;;;;5054775;28;20225;-69
2022/09/01 10:27:46;;;;;;;;;;;24.90;99.40;;;;;;5048256;28;20276;-69
2022/09/01 10:30:16;;;;;;;;;;;25.10;98.50;;;;;;5053518;28;20241;-70
2022/09/01 10:32:49;;;;;;;;;;;24.90;98.60;;;;;;5048393;28;20248;-69
2022/09/01 10:35:26;;;;;;;;;;;24.90;98.20;;;;;;5045784;28;20210;-72
2022/09/01 10:37:54;;;;;;;;;;;24.90;97.80;;;;;;5055296;28;20210;-69
2022/09/01 10:40:37;;;;;;;;;;;25.00;98.40;;;;;;5045856;28;20207;-69
2022/09/01 10:43:26;;;;;;;;;;;25.30;98.10;;;;;;5054796;28;20289;-69
2022/09/01 10:45:54;;;;;;;;;;;25.10;98.10;;;;;;5049095;28;20269;-70
2022/09/01 10:48:34;;;;;;;;;;;25.30;97.70;;;;;;5053820;28;20204;-69
2022/09/01 10:51:30;;;;;;;;;;;25.50;97.80;;;;;;5053531;28;20225;-70
2022/09/01 10:54:34;;;;;;;;;;;25.60;97.00;;;;;;5049634;28;20220;-70
2022/09/01 10:57:09;;;;;;;;;;;25.80;97.20;;;;;;5054863;28;20762;-70
2022/09/01 10:59:39;;;;;;;;;;;26.30;97.10;;;;;;5037485;28;20563;-69
2022/09/01 11:02:22;;;;;;;;;;;26.50;95.80;;;;;;5054713;28;20202;-69
2022/09/01 11:05:13;;;;;;;;;;;26.60;95.60;;;;;;5053895;28;20201;-71
2022/09/01 11:07:43;;;;;;;;;;;26.60;95.30;;;;;;5045672;28;20213;-70
2022/09/01 11:10:35;;;;;;;;;;;26.60;95.60;;;;;;5051285;28;20714;-69
2022/09/01 11:13:18;;;;;;;;;;;26.50;95.40;;;;;;5049025;28;20565;-70
2022/09/01 11:15:47;;;;;;;;;;;26.40;95.30;;;;;;5047692;28;20198;-69
2022/09/01 11:18:19;;;;;;;;;;;26.40;95.10;;;;;;5052768;28;20209;-70
2022/09/01 11:20:47;;;;;;;;;;;26.50;95.40;;;;;;5047401;28;20195;-72
2022/09/01 11:23:22;;;;;;;;;;;26.70;94.80;;;;;;5053244;28;20207;-70
2022/09/01 11:25:50;;;;;;;;;;;26.90;94.30;;;;;;5047400;28;20195;-71
2022/09/01 11:28:41;;;;;;;;;;;26.70;94.20;;;;;;5041392;28;20641;-71
2022/09/01 11:31:19;;;;;;;;;;;26.80;93.40;;;;;;5053934;28;20202;-70
2022/09/01 11:33:59;;;;;;;;;;;27.30;93.30;;;;;;5045249;28;20220;-70
2022/09/01 11:36:29;;;;;;;;;;;28.00;92.80;;;;;;5054358;28;20747;-70
2022/09/01 11:39:06;;;;;;;;;;;28.70;92.30;;;;;;5044905;28;20198;-71
2022/09/01 11:41:35;;;;;;;;;;;28.30;91.80;;;;;;5053047;28;20620;-70
2022/09/01 11:44:11;;;;;;;;;;;28.20;92.00;;;;;;5053736;28;20199;-70
2022/09/01 11:46:41;;;;;;;;;;;28.20;91.80;;;;;;5047981;28;20190;-70
2022/09/01 11:49:18;;;;;;;;;;;27.90;92.10;;;;;;5049961;28;20264;-70
2022/09/01 11:51:46;;;;;;;;;;;27.60;91.40;;;;;;5048268;28;20678;-70
2022/09/01 11:54:15;;;;;;;;;;;27.50;91.30;;;;;;5050629;28;20202;-70
2022/09/01 11:56:43;;;;;;;;;;;27.50;91.60;;;;;;5052561;28;20236;-70
2022/09/01 11:59:12;;;;;;;;;;;27.20;91.80;;;;;;5052780;28;20194;-72
2022/09/01 12:01:40;;;;;;;;;;;26.80;92.30;;;;;;5053615;28;20248;-70
2022/09/01 12:04:19;;;;;;;;;;;26.80;92.60;;;;;;5044378;28;20203;-70
2022/09/01 12:06:51;;;;;;;;;;;27.10;92.60;;;;;;5033853;28;20202;-70
2022/09/01 12:09:19;;;;;;;;;;;27.40;91.80;;;;;;5045352;28;20206;-72
2022/09/01 12:11:47;;;;;;;;;;;27.40;91.70;;;;;;5043278;28;20200;-71
2022/09/01 12:14:21;;;;;;;;;;;27.20;91.40;;;;;;5053550;28;20667;-71
2022/09/01 12:16:56;;;;;;;;;;;27.20;91.40;;;;;;5044237;28;20194;-71
2022/09/01 12:19:25;;;;;;;;;;;27.40;90.90;;;;;;5053139;28;20241;-71
2022/09/01 12:21:58;;;;;;;;;;;27.60;90.90;;;;;;5042886;28;20203;-73
2022/09/01 12:24:28;;;;;;;;;;;27.60;90.60;;;;;;5052383;28;20231;-73
2022/09/01 12:27:00;;;;;;;;;;;27.50;90.80;;;;;;5052437;28;21295;-71
2022/09/01 12:29:30;;;;;;;;;;;27.50;90.50;;;;;;5043857;28;20217;-70
2022/09/01 12:31:59;;;;;;;;;;;27.30;90.50;;;;;;5052304;28;20305;-72
2022/09/01 12:34:35;;;;;;;;;;;26.80;90.80;;;;;;5052929;28;20206;-71
2022/09/01 12:37:05;;;;;;;;;;;26.60;90.80;;;;;;5051933;28;20206;-70
2022/09/01 12:39:34;;;;;;;;;;;27.30;91.00;;;;;;5051476;28;20238;-70
2022/09/01 12:42:07;;;;;;;;;;;27.30;90.40;;;;;;5045179;28;20182;-72
2022/09/01 12:44:45;;;;;;;;;;;27.30;90.50;;;;;;5052934;28;20562;-70
2022/09/01 12:47:14;;;;;;;;;;;27.00;90.90;;;;;;5051774;28;20304;-71
2022/09/01 12:49:43;;;;;;;;;;;26.50;90.60;;;;;;5052210;28;20199;-71
2022/09/01 12:52:21;;;;;;;;;;;26.20;90.80;;;;;;5043748;28;20248;-70
2022/09/01 12:54:50;;;;;;;;;;;26.70;91.50;;;;;;5052293;28;20293;-72
2022/09/01 12:57:26;;;;;;;;;;;27.50;91.00;;;;;;5032874;28;20199;-70
2022/09/01 13:00:16;;;;;;;;;;;27.90;90.20;;;;;;5032642;28;20207;-70
2022/09/01 13:02:45;;;;;;;;;;;28.30;88.10;;;;;;5044163;28;20198;-71
2022/09/01 13:05:25;;;;;;;;;;;28.60;88.30;;;;;;5051537;28;20214;-71
2022/09/01 13:08:00;;;;;;;;;;;28.80;86.80;;;;;;5051297;28;20650;-70
2022/09/01 13:10:31;;;;;;;;;;;29.10;85.70;;;;;;5051738;28;20203;-71
2022/09/01 13:13:00;;;;;;;;;;;28.90;86.10;;;;;;5042982;28;20201;-70
2022/09/01 13:15:30;;;;;;;;;;;28.40;87.10;;;;;;5050991;28;20210;-71
2022/09/01 13:17:58;;;;;;;;;;;28.30;88.40;;;;;;5042310;28;20190;-71
2022/09/01 13:20:26;;;;;;;;;;;28.10;85.60;;;;;;5051869;28;20236;-72
2022/09/01 13:22:54;;;;;;;;;;;28.20;86.80;;;;;;5051623;28;20225;-71
2022/09/01 13:25:22;;;;;;;;;;;28.50;86.10;;;;;;5052073;28;20198;-70
2022/09/01 13:27:53;;;;;;;;;;;28.70;86.00;;;;;;5049036;28;20712;-70
2022/09/01 13:30:22;;;;;;;;;;;28.80;84.00;;;;;;5031838;28;20229;-71
2022/09/01 13:32:51;;;;;;;;;;;29.00;83.60;;;;;;5044349;28;20186;-70
2022/09/01 13:35:39;;;;;;;;;;;29.30;82.80;;;;;;5044121;28;20212;-70
2022/09/01 13:38:07;;;;;;;;;;;29.40;82.50;;;;;;5043413;28;20194;-70
2022/09/01 13:40:35;;;;;;;;;;;29.80;82.60;;;;;;5050128;28;20198;-71
2022/09/01 13:43:04;;;;;;;;;;;29.80;80.30;;;;;;5051903;28;20191;-70
2022/09/01 13:45:32;;;;;;;;;;;30.00;80.20;;;;;;5050864;28;20282;-70
2022/09/01 13:48:02;;;;;;;;;;;30.00;81.00;;;;;;5043453;28;20667;-71
2022/09/01 13:50:48;;;;;;;;;;;29.80;80.30;;;;;;5050942;28;20198;-70
2022/09/01 13:53:36;;;;;;;;;;;30.10;79.60;;;;;;5043379;28;20198;-71
2022/09/01 13:56:03;;;;;;;;;;;30.20;78.90;;;;;;5051162;28;20252;-71
2022/09/01 13:58:31;;;;;;;;;;;29.70;78.40;;;;;;5043242;28;20289;-71
2022/09/01 14:00:59;;;;;;;;;;;28.80;80.20;;;;;;5050964;28;20186;-71
2022/09/01 14:03:30;;;;;;;;;;;28.30;81.20;;;;;;5051755;28;20198;-70
2022/09/01 14:05:58;;;;;;;;;;;27.70;82.20;;;;;;5042651;28;20221;-71
2022/09/01 14:08:26;;;;;;;;;;;27.80;83.70;;;;;;5051594;28;20606;-71
2022/09/01 14:10:54;;;;;;;;;;;28.00;82.30;;;;;;5042896;28;20210;-71
2022/09/01 14:13:22;;;;;;;;;;;27.90;83.60;;;;;;5048065;28;20473;-70
2022/09/01 14:15:52;;;;;;;;;;;28.50;82.50;;;;;;5050567;28;20202;-71
2022/09/01 14:18:20;;;;;;;;;;;29.00;81.40;;;;;;5051618;28;20199;-70
2022/09/01 14:20:50;;;;;;;;;;;29.10;80.70;;;;;;5045025;28;20257;-70
2022/09/01 14:23:19;;;;;;;;;;;29.50;79.80;;;;;;5049138;28;20259;-71
2022/09/01 14:25:48;;;;;;;;;;;29.70;78.80;;;;;;5046209;28;20199;-70
2022/09/01 14:28:16;;;;;;;;;;;29.70;77.10;;;;;;5047748;28;20683;-70
2022/09/01 14:30:48;;;;;;;;;;;30.00;77.90;;;;;;5051345;28;20216;-70
2022/09/01 14:33:16;;;;;;;;;;;30.10;77.00;;;;;;5042571;28;20188;-71
2022/09/01 14:35:47;;;;;;;;;;;30.10;77.00;;;;;;5051535;28;20190;-71
2022/09/01 14:38:16;;;;;;;;;;;30.10;77.40;;;;;;5042201;28;20199;-70
2022/09/01 14:40:46;;;;;;;;;;;30.10;78.10;;;;;;5047625;28;20198;-70
2022/09/01 14:43:14;;;;;;;;;;;30.30;78.00;;;;;;5042990;28;20236;-72
2022/09/01 14:45:44;;;;;;;;;;;30.20;76.20;;;;;;5050628;28;20202;-71
2022/09/01 14:48:13;;;;;;;;;;;30.00;76.00;;;;;;5047963;28;20207;-70